Keynsham, United Kingdom
Current Conditions -  °F | °C
As of 11:20 PM on Wednesday 26 Nov 2014 (Local Time) from EGGD Reporting Station
Moderate Fog Moderate Fog  
Wind Chill: 43°   Ceiling: Unl
Heat Index: 43°   Visibility: 0.12mi
Dew Point: 43°   Wind: 2mph
Humidity: 100%   Direction: 340°NNW
Pressure: 29.74"   Gusts: NA
Location:  51.41°N, 2.5°W
Report Text: EGGD 262320Z 34002KT 0200 R27/0400 FG VV/// 06/06 Q1007
Loading
Personal Weather Stations






























Interactive Weather Map New forecast layout! Learn more

10-Day Weather Forecast

Advertisements
Track Severe Weather on mobile